sensor_id;sensor_type;location;lat;lon;timestamp;P1;durP1;ratioP1;P2;durP2;ratioP2
836;SDS011;400;53.550;9.932;2024-02-14T00:02:27;3.35;;;2.80;;
836;SDS011;400;53.550;9.932;2024-02-14T00:04:54;3.88;;;2.42;;
836;SDS011;400;53.550;9.932;2024-02-14T00:07:21;4.25;;;2.97;;
836;SDS011;400;53.550;9.932;2024-02-14T00:09:48;2.55;;;2.35;;
836;SDS011;400;53.550;9.932;2024-02-14T00:12:15;4.20;;;2.83;;
836;SDS011;400;53.550;9.932;2024-02-14T00:14:41;8.40;;;2.70;;
836;SDS011;400;53.550;9.932;2024-02-14T00:17:09;4.35;;;2.50;;
836;SDS011;400;53.550;9.932;2024-02-14T00:19:38;5.10;;;2.63;;
836;SDS011;400;53.550;9.932;2024-02-14T00:22:05;2.13;;;1.83;;
836;SDS011;400;53.550;9.932;2024-02-14T00:24:32;3.85;;;3.25;;
836;SDS011;400;53.550;9.932;2024-02-14T00:27:00;3.50;;;2.60;;
836;SDS011;400;53.550;9.932;2024-02-14T00:29:28;3.65;;;3.17;;
836;SDS011;400;53.550;9.932;2024-02-14T00:31:55;2.97;;;2.58;;
836;SDS011;400;53.550;9.932;2024-02-14T00:34:22;3.22;;;2.92;;
836;SDS011;400;53.550;9.932;2024-02-14T00:36:50;2.53;;;2.30;;
836;SDS011;400;53.550;9.932;2024-02-14T00:39:17;4.65;;;2.65;;
836;SDS011;400;53.550;9.932;2024-02-14T00:41:45;2.83;;;2.53;;
836;SDS011;400;53.550;9.932;2024-02-14T00:44:13;3.75;;;2.50;;
836;SDS011;400;53.550;9.932;2024-02-14T00:46:41;2.83;;;2.58;;
836;SDS011;400;53.550;9.932;2024-02-14T00:49:09;4.10;;;3.15;;
836;SDS011;400;53.550;9.932;2024-02-14T00:51:36;3.47;;;2.50;;
836;SDS011;400;53.550;9.932;2024-02-14T00:54:05;3.92;;;2.92;;
836;SDS011;400;53.550;9.932;2024-02-14T00:56:32;7.03;;;2.47;;
836;SDS011;400;53.550;9.932;2024-02-14T00:58:59;3.33;;;2.78;;
836;SDS011;400;53.550;9.932;2024-02-14T01:01:26;5.38;;;2.83;;
836;SDS011;400;53.550;9.932;2024-02-14T01:03:53;4.65;;;2.42;;
836;SDS011;400;53.550;9.932;2024-02-14T01:06:20;3.15;;;2.55;;
836;SDS011;400;53.550;9.932;2024-02-14T01:08:46;3.25;;;2.58;;
836;SDS011;400;53.550;9.932;2024-02-14T01:11:15;3.03;;;2.50;;
836;SDS011;400;53.550;9.932;2024-02-14T01:13:42;2.80;;;2.20;;
836;SDS011;400;53.550;9.932;2024-02-14T01:16:09;5.05;;;2.60;;
836;SDS011;400;53.550;9.932;2024-02-14T01:18:36;2.85;;;2.60;;
836;SDS011;400;53.550;9.932;2024-02-14T01:21:03;2.92;;;2.53;;
836;SDS011;400;53.550;9.932;2024-02-14T01:23:30;4.05;;;2.72;;
836;SDS011;400;53.550;9.932;2024-02-14T01:25:58;5.47;;;2.72;;
836;SDS011;400;53.550;9.932;2024-02-14T01:28:26;3.55;;;2.90;;
836;SDS011;400;53.550;9.932;2024-02-14T01:30:53;3.08;;;2.58;;
836;SDS011;400;53.550;9.932;2024-02-14T01:33:22;3.85;;;3.55;;
836;SDS011;400;53.550;9.932;2024-02-14T01:35:48;3.75;;;3.30;;
836;SDS011;400;53.550;9.932;2024-02-14T01:38:15;4.88;;;2.50;;
836;SDS011;400;53.550;9.932;2024-02-14T01:40:42;3.70;;;3.03;;
836;SDS011;400;53.550;9.932;2024-02-14T01:43:10;3.53;;;3.25;;
836;SDS011;400;53.550;9.932;2024-02-14T01:45:40;3.00;;;2.50;;
836;SDS011;400;53.550;9.932;2024-02-14T01:48:08;3.72;;;3.03;;
836;SDS011;400;53.550;9.932;2024-02-14T01:50:37;4.07;;;3.67;;
836;SDS011;400;53.550;9.932;2024-02-14T01:53:05;4.72;;;3.75;;
836;SDS011;400;53.550;9.932;2024-02-14T01:55:33;3.45;;;2.70;;
836;SDS011;400;53.550;9.932;2024-02-14T01:58:00;5.00;;;2.87;;
836;SDS011;400;53.550;9.932;2024-02-14T02:00:28;3.92;;;3.63;;
836;SDS011;400;53.550;9.932;2024-02-14T02:02:58;5.80;;;2.72;;
836;SDS011;400;53.550;9.932;2024-02-14T02:05:25;7.28;;;3.85;;
836;SDS011;400;53.550;9.932;2024-02-14T02:07:51;5.70;;;3.70;;
836;SDS011;400;53.550;9.932;2024-02-14T02:10:19;6.18;;;4.13;;
836;SDS011;400;53.550;9.932;2024-02-14T02:12:47;4.63;;;4.22;;
836;SDS011;400;53.550;9.932;2024-02-14T02:15:17;6.30;;;4.32;;
836;SDS011;400;53.550;9.932;2024-02-14T02:17:44;3.80;;;3.50;;
836;SDS011;400;53.550;9.932;2024-02-14T02:20:18;4.85;;;3.10;;
836;SDS011;400;53.550;9.932;2024-02-14T02:22:47;4.35;;;3.20;;
836;SDS011;400;53.550;9.932;2024-02-14T02:25:14;3.67;;;3.38;;
836;SDS011;400;53.550;9.932;2024-02-14T02:27:45;6.35;;;3.75;;
836;SDS011;400;53.550;9.932;2024-02-14T02:30:12;3.90;;;3.50;;
836;SDS011;400;53.550;9.932;2024-02-14T02:32:39;5.18;;;3.92;;
836;SDS011;400;53.550;9.932;2024-02-14T02:35:06;4.80;;;4.38;;
836;SDS011;400;53.550;9.932;2024-02-14T02:37:34;4.28;;;3.33;;
836;SDS011;400;53.550;9.932;2024-02-14T02:40:03;6.68;;;3.53;;
836;SDS011;400;53.550;9.932;2024-02-14T02:42:30;3.78;;;3.38;;
836;SDS011;400;53.550;9.932;2024-02-14T02:44:57;5.30;;;3.50;;
836;SDS011;400;53.550;9.932;2024-02-14T02:47:24;3.17;;;2.85;;
836;SDS011;400;53.550;9.932;2024-02-14T02:49:51;4.97;;;2.95;;
836;SDS011;400;53.550;9.932;2024-02-14T02:52:18;3.13;;;2.92;;
836;SDS011;400;53.550;9.932;2024-02-14T02:54:46;4.55;;;3.05;;
836;SDS011;400;53.550;9.932;2024-02-14T02:57:14;3.65;;;3.35;;
836;SDS011;400;53.550;9.932;2024-02-14T02:59:41;4.50;;;3.45;;
836;SDS011;400;53.550;9.932;2024-02-14T03:02:10;3.72;;;3.42;;
836;SDS011;400;53.550;9.932;2024-02-14T03:04:37;3.88;;;3.53;;
836;SDS011;400;53.550;9.932;2024-02-14T03:07:05;3.92;;;3.60;;
836;SDS011;400;53.550;9.932;2024-02-14T03:09:33;4.95;;;3.50;;
836;SDS011;400;53.550;9.932;2024-02-14T03:12:00;3.83;;;3.10;;
836;SDS011;400;53.550;9.932;2024-02-14T03:14:29;4.50;;;3.90;;
836;SDS011;400;53.550;9.932;2024-02-14T03:16:57;4.32;;;3.45;;
836;SDS011;400;53.550;9.932;2024-02-14T03:19:24;4.72;;;4.10;;
836;SDS011;400;53.550;9.932;2024-02-14T03:21:52;4.28;;;3.63;;
836;SDS011;400;53.550;9.932;2024-02-14T03:24:18;3.70;;;3.40;;
836;SDS011;400;53.550;9.932;2024-02-14T03:26:45;5.63;;;4.10;;
836;SDS011;400;53.550;9.932;2024-02-14T03:29:12;4.10;;;3.70;;
836;SDS011;400;53.550;9.932;2024-02-14T03:31:43;5.10;;;4.03;;
836;SDS011;400;53.550;9.932;2024-02-14T03:34:10;4.38;;;3.97;;
836;SDS011;400;53.550;9.932;2024-02-14T03:36:37;6.13;;;4.78;;
836;SDS011;400;53.550;9.932;2024-02-14T03:39:04;3.75;;;3.42;;
836;SDS011;400;53.550;9.932;2024-02-14T03:41:31;5.05;;;3.97;;
836;SDS011;400;53.550;9.932;2024-02-14T03:43:58;4.70;;;4.20;;
836;SDS011;400;53.550;9.932;2024-02-14T03:46:26;3.85;;;3.38;;
836;SDS011;400;53.550;9.932;2024-02-14T03:48:55;5.45;;;3.97;;
836;SDS011;400;53.550;9.932;2024-02-14T03:51:22;3.60;;;3.38;;
836;SDS011;400;53.550;9.932;2024-02-14T03:53:49;4.10;;;3.63;;
836;SDS011;400;53.550;9.932;2024-02-14T03:56:16;3.42;;;3.22;;
836;SDS011;400;53.550;9.932;2024-02-14T03:58:43;6.00;;;3.53;;
836;SDS011;400;53.550;9.932;2024-02-14T04:01:12;4.05;;;3.63;;
836;SDS011;400;53.550;9.932;2024-02-14T04:03:39;4.95;;;3.78;;
836;SDS011;400;53.550;9.932;2024-02-14T04:06:07;3.35;;;3.05;;
836;SDS011;400;53.550;9.932;2024-02-14T04:08:35;3.88;;;3.47;;
836;SDS011;400;53.550;9.932;2024-02-14T04:11:02;4.20;;;3.65;;
836;SDS011;400;53.550;9.932;2024-02-14T04:13:29;8.20;;;4.00;;
836;SDS011;400;53.550;9.932;2024-02-14T04:15:55;3.40;;;3.10;;
836;SDS011;400;53.550;9.932;2024-02-14T04:18:22;6.78;;;4.57;;
836;SDS011;400;53.550;9.932;2024-02-14T04:20:49;5.75;;;3.97;;
836;SDS011;400;53.550;9.932;2024-02-14T04:23:17;4.63;;;4.13;;
836;SDS011;400;53.550;9.932;2024-02-14T04:25:44;5.18;;;3.70;;
836;SDS011;400;53.550;9.932;2024-02-14T04:28:11;5.13;;;4.25;;
836;SDS011;400;53.550;9.932;2024-02-14T04:30:38;4.03;;;3.65;;
836;SDS011;400;53.550;9.932;2024-02-14T04:33:06;4.45;;;4.10;;
836;SDS011;400;53.550;9.932;2024-02-14T04:35:34;4.47;;;4.18;;
836;SDS011;400;53.550;9.932;2024-02-14T04:38:02;3.58;;;3.28;;
836;SDS011;400;53.550;9.932;2024-02-14T04:40:32;4.75;;;4.35;;
836;SDS011;400;53.550;9.932;2024-02-14T04:43:00;7.45;;;4.45;;
836;SDS011;400;53.550;9.932;2024-02-14T04:45:27;6.70;;;5.65;;
836;SDS011;400;53.550;9.932;2024-02-14T04:47:53;5.00;;;4.20;;
836;SDS011;400;53.550;9.932;2024-02-14T04:50:20;5.95;;;5.45;;
836;SDS011;400;53.550;9.932;2024-02-14T04:52:47;8.65;;;4.72;;
836;SDS011;400;53.550;9.932;2024-02-14T04:55:14;6.25;;;3.90;;
836;SDS011;400;53.550;9.932;2024-02-14T04:57:50;5.20;;;4.40;;
836;SDS011;400;53.550;9.932;2024-02-14T05:00:17;4.97;;;4.47;;
836;SDS011;400;53.550;9.932;2024-02-14T05:02:44;6.72;;;4.07;;
836;SDS011;400;53.550;9.932;2024-02-14T05:05:11;5.55;;;4.93;;
836;SDS011;400;53.550;9.932;2024-02-14T05:07:37;5.63;;;4.97;;
836;SDS011;400;53.550;9.932;2024-02-14T05:10:05;5.35;;;4.60;;
836;SDS011;400;53.550;9.932;2024-02-14T05:12:33;5.00;;;4.70;;
836;SDS011;400;53.550;9.932;2024-02-14T05:15:01;4.97;;;4.53;;
836;SDS011;400;53.550;9.932;2024-02-14T05:17:29;8.15;;;4.63;;
836;SDS011;400;53.550;9.932;2024-02-14T05:19:56;6.38;;;5.72;;
836;SDS011;400;53.550;9.932;2024-02-14T05:22:23;7.28;;;6.65;;
836;SDS011;400;53.550;9.932;2024-02-14T05:24:50;7.15;;;5.97;;
836;SDS011;400;53.550;9.932;2024-02-14T05:27:18;6.03;;;5.43;;
836;SDS011;400;53.550;9.932;2024-02-14T05:29:47;6.95;;;5.90;;
836;SDS011;400;53.550;9.932;2024-02-14T05:32:17;5.95;;;5.32;;
836;SDS011;400;53.550;9.932;2024-02-14T05:34:46;5.60;;;5.10;;
836;SDS011;400;53.550;9.932;2024-02-14T05:37:13;5.65;;;5.00;;
836;SDS011;400;53.550;9.932;2024-02-14T05:39:40;15.32;;;13.93;;
836;SDS011;400;53.550;9.932;2024-02-14T05:42:07;7.15;;;5.95;;
836;SDS011;400;53.550;9.932;2024-02-14T05:44:33;7.45;;;6.85;;
836;SDS011;400;53.550;9.932;2024-02-14T05:47:00;6.18;;;5.68;;
836;SDS011;400;53.550;9.932;2024-02-14T05:49:29;5.95;;;5.43;;
836;SDS011;400;53.550;9.932;2024-02-14T05:51:55;6.15;;;5.55;;
836;SDS011;400;53.550;9.932;2024-02-14T05:54:22;5.70;;;5.20;;
836;SDS011;400;53.550;9.932;2024-02-14T05:56:50;6.68;;;5.30;;
836;SDS011;400;53.550;9.932;2024-02-14T05:59:17;5.82;;;5.15;;
836;SDS011;400;53.550;9.932;2024-02-14T06:01:44;5.47;;;5.07;;
836;SDS011;400;53.550;9.932;2024-02-14T06:04:11;5.70;;;4.90;;
836;SDS011;400;53.550;9.932;2024-02-14T06:06:40;4.47;;;4.18;;
836;SDS011;400;53.550;9.932;2024-02-14T06:09:07;6.25;;;5.75;;
836;SDS011;400;53.550;9.932;2024-02-14T06:11:37;4.75;;;4.35;;
836;SDS011;400;53.550;9.932;2024-02-14T06:14:04;5.15;;;4.75;;
836;SDS011;400;53.550;9.932;2024-02-14T06:16:32;6.30;;;4.97;;
836;SDS011;400;53.550;9.932;2024-02-14T06:19:00;5.10;;;4.70;;
836;SDS011;400;53.550;9.932;2024-02-14T06:21:30;5.07;;;4.68;;
836;SDS011;400;53.550;9.932;2024-02-14T06:24:06;7.28;;;4.85;;
836;SDS011;400;53.550;9.932;2024-02-14T06:26:41;7.25;;;5.35;;
836;SDS011;400;53.550;9.932;2024-02-14T06:29:08;8.45;;;7.28;;
836;SDS011;400;53.550;9.932;2024-02-14T06:31:37;5.55;;;5.05;;
836;SDS011;400;53.550;9.932;2024-02-14T06:34:04;5.60;;;5.05;;
836;SDS011;400;53.550;9.932;2024-02-14T06:36:33;5.47;;;4.97;;
836;SDS011;400;53.550;9.932;2024-02-14T06:39:00;5.00;;;4.60;;
836;SDS011;400;53.550;9.932;2024-02-14T06:41:31;6.22;;;5.68;;
836;SDS011;400;53.550;9.932;2024-02-14T06:44:05;6.63;;;6.03;;
836;SDS011;400;53.550;9.932;2024-02-14T06:46:35;4.90;;;4.50;;
836;SDS011;400;53.550;9.932;2024-02-14T06:49:03;5.90;;;5.40;;
836;SDS011;400;53.550;9.932;2024-02-14T06:51:33;5.78;;;5.22;;
836;SDS011;400;53.550;9.932;2024-02-14T06:54:00;5.43;;;4.93;;
836;SDS011;400;53.550;9.932;2024-02-14T06:56:31;5.95;;;5.32;;
836;SDS011;400;53.550;9.932;2024-02-14T06:59:00;5.80;;;5.30;;
836;SDS011;400;53.550;9.932;2024-02-14T07:01:28;5.95;;;5.45;;
836;SDS011;400;53.550;9.932;2024-02-14T07:04:00;6.35;;;5.75;;
836;SDS011;400;53.550;9.932;2024-02-14T07:06:38;6.60;;;6.10;;
836;SDS011;400;53.550;9.932;2024-02-14T07:09:07;6.22;;;5.63;;
836;SDS011;400;53.550;9.932;2024-02-14T07:11:40;6.20;;;5.70;;
836;SDS011;400;53.550;9.932;2024-02-14T07:14:15;6.85;;;6.15;;
836;SDS011;400;53.550;9.932;2024-02-14T07:16:43;6.28;;;5.78;;
836;SDS011;400;53.550;9.932;2024-02-14T07:19:10;5.78;;;5.20;;
836;SDS011;400;53.550;9.932;2024-02-14T07:21:40;6.13;;;5.60;;
836;SDS011;400;53.550;9.932;2024-02-14T07:24:06;6.93;;;6.32;;
836;SDS011;400;53.550;9.932;2024-02-14T07:26:34;7.05;;;6.45;;
836;SDS011;400;53.550;9.932;2024-02-14T07:29:09;6.15;;;5.65;;
836;SDS011;400;53.550;9.932;2024-02-14T07:31:53;6.75;;;6.15;;
836;SDS011;400;53.550;9.932;2024-02-14T07:34:24;6.93;;;6.30;;
836;SDS011;400;53.550;9.932;2024-02-14T07:36:51;7.13;;;6.25;;
836;SDS011;400;53.550;9.932;2024-02-14T07:39:18;14.38;;;12.88;;
836;SDS011;400;53.550;9.932;2024-02-14T07:41:45;7.28;;;6.53;;
836;SDS011;400;53.550;9.932;2024-02-14T07:44:13;8.43;;;6.57;;
836;SDS011;400;53.550;9.932;2024-02-14T07:46:40;7.65;;;6.80;;
836;SDS011;400;53.550;9.932;2024-02-14T07:49:07;8.85;;;6.57;;
836;SDS011;400;53.550;9.932;2024-02-14T07:51:35;8.55;;;6.57;;
836;SDS011;400;53.550;9.932;2024-02-14T07:54:03;7.68;;;6.88;;
836;SDS011;400;53.550;9.932;2024-02-14T07:56:30;7.43;;;6.82;;
836;SDS011;400;53.550;9.932;2024-02-14T07:58:59;7.93;;;7.13;;
836;SDS011;400;53.550;9.932;2024-02-14T08:01:27;6.78;;;6.18;;
836;SDS011;400;53.550;9.932;2024-02-14T08:03:57;11.35;;;7.03;;
836;SDS011;400;53.550;9.932;2024-02-14T08:06:24;7.90;;;7.13;;
836;SDS011;400;53.550;9.932;2024-02-14T08:08:53;8.85;;;6.80;;
836;SDS011;400;53.550;9.932;2024-02-14T08:11:29;7.15;;;6.10;;
836;SDS011;400;53.550;9.932;2024-02-14T08:14:00;7.50;;;6.90;;
836;SDS011;400;53.550;9.932;2024-02-14T08:16:32;7.80;;;7.10;;
836;SDS011;400;53.550;9.932;2024-02-14T08:19:00;7.53;;;6.93;;
836;SDS011;400;53.550;9.932;2024-02-14T08:21:28;8.10;;;7.05;;
836;SDS011;400;53.550;9.932;2024-02-14T08:23:56;8.23;;;7.50;;
836;SDS011;400;53.550;9.932;2024-02-14T08:26:23;7.68;;;6.97;;
836;SDS011;400;53.550;9.932;2024-02-14T08:28:51;8.32;;;7.30;;
836;SDS011;400;53.550;9.932;2024-02-14T08:31:19;8.90;;;8.10;;
836;SDS011;400;53.550;9.932;2024-02-14T08:33:49;9.02;;;8.13;;
836;SDS011;400;53.550;9.932;2024-02-14T08:36:17;8.68;;;7.60;;
836;SDS011;400;53.550;9.932;2024-02-14T08:38:45;9.43;;;7.57;;
836;SDS011;400;53.550;9.932;2024-02-14T08:41:12;8.68;;;7.30;;
836;SDS011;400;53.550;9.932;2024-02-14T08:43:40;8.00;;;7.03;;
836;SDS011;400;53.550;9.932;2024-02-14T08:46:10;8.48;;;7.72;;
836;SDS011;400;53.550;9.932;2024-02-14T08:48:43;10.38;;;8.00;;
836;SDS011;400;53.550;9.932;2024-02-14T08:51:19;8.55;;;7.70;;
836;SDS011;400;53.550;9.932;2024-02-14T08:53:46;7.90;;;7.22;;
836;SDS011;400;53.550;9.932;2024-02-14T08:56:13;7.60;;;6.90;;
836;SDS011;400;53.550;9.932;2024-02-14T08:58:40;8.95;;;8.05;;
836;SDS011;400;53.550;9.932;2024-02-14T09:01:07;7.47;;;6.82;;
836;SDS011;400;53.550;9.932;2024-02-14T09:03:34;8.02;;;7.25;;
836;SDS011;400;53.550;9.932;2024-02-14T09:06:01;6.78;;;6.25;;
836;SDS011;400;53.550;9.932;2024-02-14T09:08:30;7.30;;;6.70;;
836;SDS011;400;53.550;9.932;2024-02-14T09:10:57;7.13;;;6.53;;
836;SDS011;400;53.550;9.932;2024-02-14T09:13:24;6.18;;;5.53;;
836;SDS011;400;53.550;9.932;2024-02-14T09:15:53;7.82;;;7.07;;
836;SDS011;400;53.550;9.932;2024-02-14T09:18:24;5.78;;;5.28;;
836;SDS011;400;53.550;9.932;2024-02-14T09:20:51;7.15;;;6.50;;
836;SDS011;400;53.550;9.932;2024-02-14T09:23:19;7.15;;;5.93;;
836;SDS011;400;53.550;9.932;2024-02-14T09:25:55;11.10;;;6.33;;
836;SDS011;400;53.550;9.932;2024-02-14T09:28:26;7.13;;;5.13;;
836;SDS011;400;53.550;9.932;2024-02-14T09:31:04;4.97;;;4.50;;
836;SDS011;400;53.550;9.932;2024-02-14T09:33:38;6.30;;;5.55;;
836;SDS011;400;53.550;9.932;2024-02-14T09:36:05;5.28;;;4.78;;
836;SDS011;400;53.550;9.932;2024-02-14T09:38:33;4.00;;;3.58;;
836;SDS011;400;53.550;9.932;2024-02-14T09:41:04;5.63;;;5.00;;
836;SDS011;400;53.550;9.932;2024-02-14T09:43:43;5.55;;;5.05;;
836;SDS011;400;53.550;9.932;2024-02-14T09:46:11;4.75;;;4.18;;
836;SDS011;400;53.550;9.932;2024-02-14T09:48:40;3.90;;;3.60;;
836;SDS011;400;53.550;9.932;2024-02-14T09:51:09;5.75;;;4.10;;
836;SDS011;400;53.550;9.932;2024-02-14T09:53:42;4.47;;;4.07;;
836;SDS011;400;53.550;9.932;2024-02-14T09:56:11;4.18;;;3.88;;
836;SDS011;400;53.550;9.932;2024-02-14T09:58:41;4.30;;;3.90;;
836;SDS011;400;53.550;9.932;2024-02-14T10:01:17;3.67;;;3.38;;
836;SDS011;400;53.550;9.932;2024-02-14T10:03:50;4.10;;;3.80;;
836;SDS011;400;53.550;9.932;2024-02-14T10:06:17;3.78;;;3.47;;
836;SDS011;400;53.550;9.932;2024-02-14T10:08:45;4.60;;;4.27;;
836;SDS011;400;53.550;9.932;2024-02-14T10:11:20;3.80;;;3.50;;
836;SDS011;400;53.550;9.932;2024-02-14T10:13:49;4.87;;;3.97;;
836;SDS011;400;53.550;9.932;2024-02-14T10:16:18;3.95;;;3.65;;
836;SDS011;400;53.550;9.932;2024-02-14T10:18:45;4.13;;;3.80;;
836;SDS011;400;53.550;9.932;2024-02-14T10:21:14;3.95;;;3.65;;
836;SDS011;400;53.550;9.932;2024-02-14T10:23:44;5.05;;;4.65;;
836;SDS011;400;53.550;9.932;2024-02-14T10:26:12;6.50;;;5.90;;
836;SDS011;400;53.550;9.932;2024-02-14T10:28:42;4.93;;;4.53;;
836;SDS011;400;53.550;9.932;2024-02-14T10:31:09;4.30;;;4.00;;
836;SDS011;400;53.550;9.932;2024-02-14T10:33:40;4.15;;;3.75;;
836;SDS011;400;53.550;9.932;2024-02-14T10:36:15;4.13;;;3.83;;
836;SDS011;400;53.550;9.932;2024-02-14T10:38:49;3.83;;;3.53;;
836;SDS011;400;53.550;9.932;2024-02-14T10:41:18;3.63;;;3.33;;
836;SDS011;400;53.550;9.932;2024-02-14T10:43:55;4.20;;;3.90;;
836;SDS011;400;53.550;9.932;2024-02-14T10:46:28;9.50;;;8.60;;
836;SDS011;400;53.550;9.932;2024-02-14T10:49:05;4.00;;;3.70;;
836;SDS011;400;53.550;9.932;2024-02-14T10:51:36;3.80;;;3.60;;
836;SDS011;400;53.550;9.932;2024-02-14T10:54:08;3.90;;;3.50;;
836;SDS011;400;53.550;9.932;2024-02-14T10:56:38;3.23;;;3.03;;
836;SDS011;400;53.550;9.932;2024-02-14T10:59:12;6.50;;;5.90;;
836;SDS011;400;53.550;9.932;2024-02-14T11:01:48;26.30;;;21.47;;
836;SDS011;400;53.550;9.932;2024-02-14T11:04:19;3.53;;;3.23;;
836;SDS011;400;53.550;9.932;2024-02-14T11:06:47;3.63;;;3.33;;
836;SDS011;400;53.550;9.932;2024-02-14T11:09:19;3.60;;;3.30;;
836;SDS011;400;53.550;9.932;2024-02-14T11:11:47;4.43;;;4.13;;
836;SDS011;400;53.550;9.932;2024-02-14T11:14:17;3.70;;;3.40;;
836;SDS011;400;53.550;9.932;2024-02-14T11:16:45;4.72;;;4.32;;
836;SDS011;400;53.550;9.932;2024-02-14T11:19:12;3.87;;;3.57;;
836;SDS011;400;53.550;9.932;2024-02-14T11:21:41;5.30;;;4.80;;
836;SDS011;400;53.550;9.932;2024-02-14T11:24:11;4.80;;;4.40;;
836;SDS011;400;53.550;9.932;2024-02-14T11:26:47;5.10;;;4.70;;
836;SDS011;400;53.550;9.932;2024-02-14T11:29:31;5.00;;;4.60;;
836;SDS011;400;53.550;9.932;2024-02-14T11:32:01;5.10;;;4.70;;
836;SDS011;400;53.550;9.932;2024-02-14T11:34:31;5.30;;;4.67;;
836;SDS011;400;53.550;9.932;2024-02-14T11:36:59;8.43;;;7.73;;
836;SDS011;400;53.550;9.932;2024-02-14T11:39:26;5.40;;;4.93;;
836;SDS011;400;53.550;9.932;2024-02-14T11:41:52;5.03;;;4.63;;
836;SDS011;400;53.550;9.932;2024-02-14T11:44:25;4.77;;;4.43;;
836;SDS011;400;53.550;9.932;2024-02-14T11:46:53;5.80;;;5.30;;
836;SDS011;400;53.550;9.932;2024-02-14T11:49:20;5.20;;;4.80;;
836;SDS011;400;53.550;9.932;2024-02-14T11:51:48;5.73;;;5.23;;
836;SDS011;400;53.550;9.932;2024-02-14T11:54:15;4.80;;;4.43;;
836;SDS011;400;53.550;9.932;2024-02-14T11:56:43;5.67;;;4.90;;
836;SDS011;400;53.550;9.932;2024-02-14T11:59:10;5.13;;;4.73;;
836;SDS011;400;53.550;9.932;2024-02-14T12:01:37;5.60;;;5.10;;
836;SDS011;400;53.550;9.932;2024-02-14T12:04:08;5.40;;;5.00;;
836;SDS011;400;53.550;9.932;2024-02-14T12:06:36;5.03;;;4.63;;
836;SDS011;400;53.550;9.932;2024-02-14T12:09:10;6.43;;;5.90;;
836;SDS011;400;53.550;9.932;2024-02-14T12:11:39;7.77;;;7.07;;
836;SDS011;400;53.550;9.932;2024-02-14T12:14:08;6.43;;;5.83;;
836;SDS011;400;53.550;9.932;2024-02-14T12:16:36;6.23;;;5.67;;
836;SDS011;400;53.550;9.932;2024-02-14T12:19:05;5.73;;;5.13;;
836;SDS011;400;53.550;9.932;2024-02-14T12:21:36;6.27;;;5.77;;
836;SDS011;400;53.550;9.932;2024-02-14T12:24:06;6.10;;;5.53;;
836;SDS011;400;53.550;9.932;2024-02-14T12:26:42;6.20;;;5.70;;
836;SDS011;400;53.550;9.932;2024-02-14T12:29:19;9.47;;;8.67;;
836;SDS011;400;53.550;9.932;2024-02-14T12:31:51;7.13;;;6.53;;
836;SDS011;400;53.550;9.932;2024-02-14T12:34:35;7.20;;;6.50;;
836;SDS011;400;53.550;9.932;2024-02-14T12:37:03;7.03;;;6.43;;
836;SDS011;400;53.550;9.932;2024-02-14T12:39:33;7.50;;;6.70;;
836;SDS011;400;53.550;9.932;2024-02-14T12:42:06;7.90;;;7.10;;
836;SDS011;400;53.550;9.932;2024-02-14T12:44:33;10.10;;;6.80;;
836;SDS011;400;53.550;9.932;2024-02-14T12:47:01;7.57;;;6.83;;
836;SDS011;400;53.550;9.932;2024-02-14T12:49:35;9.47;;;8.43;;
836;SDS011;400;53.550;9.932;2024-02-14T12:52:03;9.40;;;8.50;;
836;SDS011;400;53.550;9.932;2024-02-14T12:54:32;9.90;;;8.90;;
836;SDS011;400;53.550;9.932;2024-02-14T12:57:05;10.47;;;9.37;;
836;SDS011;400;53.550;9.932;2024-02-14T12:59:34;10.97;;;9.97;;
836;SDS011;400;53.550;9.932;2024-02-14T13:02:04;9.60;;;8.67;;
836;SDS011;400;53.550;9.932;2024-02-14T13:04:32;11.13;;;9.70;;
836;SDS011;400;53.550;9.932;2024-02-14T13:07:01;10.97;;;9.33;;
836;SDS011;400;53.550;9.932;2024-02-14T13:09:39;10.40;;;9.40;;
836;SDS011;400;53.550;9.932;2024-02-14T13:12:09;11.87;;;10.60;;
836;SDS011;400;53.550;9.932;2024-02-14T13:14:36;10.20;;;8.87;;
836;SDS011;400;53.550;9.932;2024-02-14T13:17:04;10.10;;;9.10;;
836;SDS011;400;53.550;9.932;2024-02-14T13:19:38;9.43;;;8.53;;
836;SDS011;400;53.550;9.932;2024-02-14T13:22:17;9.80;;;8.40;;
836;SDS011;400;53.550;9.932;2024-02-14T13:24:46;9.20;;;7.10;;
836;SDS011;400;53.550;9.932;2024-02-14T13:27:15;8.30;;;7.50;;
836;SDS011;400;53.550;9.932;2024-02-14T13:29:43;7.87;;;7.07;;
836;SDS011;400;53.550;9.932;2024-02-14T13:32:16;8.80;;;7.77;;
836;SDS011;400;53.550;9.932;2024-02-14T13:34:47;8.60;;;7.80;;
836;SDS011;400;53.550;9.932;2024-02-14T13:37:28;9.37;;;8.37;;
836;SDS011;400;53.550;9.932;2024-02-14T13:40:00;7.77;;;6.97;;
836;SDS011;400;53.550;9.932;2024-02-14T13:42:35;8.40;;;7.50;;
836;SDS011;400;53.550;9.932;2024-02-14T13:45:03;8.60;;;7.73;;
836;SDS011;400;53.550;9.932;2024-02-14T13:47:35;7.20;;;6.50;;
836;SDS011;400;53.550;9.932;2024-02-14T13:50:08;8.77;;;7.63;;
836;SDS011;400;53.550;9.932;2024-02-14T13:52:37;8.00;;;7.20;;
836;SDS011;400;53.550;9.932;2024-02-14T13:55:05;8.30;;;7.50;;
836;SDS011;400;53.550;9.932;2024-02-14T13:57:42;8.10;;;7.30;;
836;SDS011;400;53.550;9.932;2024-02-14T14:00:14;8.70;;;7.80;;
836;SDS011;400;53.550;9.932;2024-02-14T14:02:46;12.40;;;8.67;;
836;SDS011;400;53.550;9.932;2024-02-14T14:05:17;9.67;;;8.63;;
836;SDS011;400;53.550;9.932;2024-02-14T14:07:54;10.23;;;8.77;;
836;SDS011;400;53.550;9.932;2024-02-14T14:10:22;9.87;;;8.50;;
836;SDS011;400;53.550;9.932;2024-02-14T14:12:51;7.80;;;7.10;;
836;SDS011;400;53.550;9.932;2024-02-14T14:15:20;8.50;;;7.63;;
836;SDS011;400;53.550;9.932;2024-02-14T14:17:48;8.17;;;7.37;;
836;SDS011;400;53.550;9.932;2024-02-14T14:20:17;10.37;;;8.13;;
836;SDS011;400;53.550;9.932;2024-02-14T14:22:48;7.90;;;7.20;;
836;SDS011;400;53.550;9.932;2024-02-14T14:25:16;7.27;;;6.53;;
836;SDS011;400;53.550;9.932;2024-02-14T14:27:43;8.50;;;7.70;;
836;SDS011;400;53.550;9.932;2024-02-14T14:30:12;8.10;;;6.60;;
836;SDS011;400;53.550;9.932;2024-02-14T14:32:45;7.17;;;6.57;;
836;SDS011;400;53.550;9.932;2024-02-14T14:35:16;8.50;;;7.70;;
836;SDS011;400;53.550;9.932;2024-02-14T14:37:45;7.83;;;7.13;;
836;SDS011;400;53.550;9.932;2024-02-14T14:40:18;8.70;;;7.90;;
836;SDS011;400;53.550;9.932;2024-02-14T14:42:46;8.10;;;7.30;;
836;SDS011;400;53.550;9.932;2024-02-14T14:45:13;8.20;;;7.40;;
836;SDS011;400;53.550;9.932;2024-02-14T14:47:45;7.80;;;7.00;;
836;SDS011;400;53.550;9.932;2024-02-14T14:50:14;9.23;;;8.33;;
836;SDS011;400;53.550;9.932;2024-02-14T14:52:43;9.27;;;8.47;;
836;SDS011;400;53.550;9.932;2024-02-14T14:55:09;11.17;;;9.97;;
836;SDS011;400;53.550;9.932;2024-02-14T14:57:41;10.13;;;9.13;;
836;SDS011;400;53.550;9.932;2024-02-14T15:00:10;10.50;;;8.03;;
836;SDS011;400;53.550;9.932;2024-02-14T15:02:43;8.23;;;7.43;;
836;SDS011;400;53.550;9.932;2024-02-14T15:05:12;9.20;;;8.30;;
836;SDS011;400;53.550;9.932;2024-02-14T15:07:42;8.70;;;7.80;;
836;SDS011;400;53.550;9.932;2024-02-14T15:10:12;9.03;;;8.23;;
836;SDS011;400;53.550;9.932;2024-02-14T15:12:44;9.50;;;7.50;;
836;SDS011;400;53.550;9.932;2024-02-14T15:15:16;8.37;;;7.47;;
836;SDS011;400;53.550;9.932;2024-02-14T15:17:46;8.17;;;7.37;;
836;SDS011;400;53.550;9.932;2024-02-14T15:20:14;7.60;;;6.90;;
836;SDS011;400;53.550;9.932;2024-02-14T15:22:40;7.43;;;6.73;;
836;SDS011;400;53.550;9.932;2024-02-14T15:25:09;7.40;;;6.70;;
836;SDS011;400;53.550;9.932;2024-02-14T15:27:41;7.03;;;6.43;;
836;SDS011;400;53.550;9.932;2024-02-14T15:30:20;10.70;;;7.40;;
836;SDS011;400;53.550;9.932;2024-02-14T15:33:10;7.37;;;6.70;;
836;SDS011;400;53.550;9.932;2024-02-14T15:35:49;6.93;;;6.33;;
836;SDS011;400;53.550;9.932;2024-02-14T15:38:19;7.60;;;6.80;;
836;SDS011;400;53.550;9.932;2024-02-14T15:40:53;10.40;;;9.37;;
836;SDS011;400;53.550;9.932;2024-02-14T15:43:38;8.10;;;7.40;;
836;SDS011;400;53.550;9.932;2024-02-14T15:46:10;7.17;;;6.37;;
836;SDS011;400;53.550;9.932;2024-02-14T15:48:44;6.93;;;6.17;;
836;SDS011;400;53.550;9.932;2024-02-14T15:51:14;7.43;;;6.83;;
836;SDS011;400;53.550;9.932;2024-02-14T15:53:46;7.03;;;6.40;;
836;SDS011;400;53.550;9.932;2024-02-14T15:56:13;8.43;;;6.70;;
836;SDS011;400;53.550;9.932;2024-02-14T15:58:41;8.10;;;7.30;;